SV1LH-1 Melissia GR current weather conditions

sailwx.info

Wind from 225 at 2 knots gusting 5

Air temperature 27.2° C
Dewpoint 13.9° C

Last reported at 2015-May-04 08:51 UTC.
Time now 2015-May-04 10:02 UTC

Location: N 38°03' E 023°51'.
View on Google Maps.

See reports from other nearby stations

  
Tides and Currents Weather Stations Pressure Air Temp Water Temp Dewpoint Dewpoint Depression Visibility Wind Speed Wind Dir Waves Ship Positions
date/time (UTC)wind fromknots sea level pressurealtimeterstation pressurevisibilityair tempwater tempwave heightnotes
2015-May-04 08:51 225 2 gusting 5 27.2
2015-May-04 08:46 112 0 gusting 1 27.2
2015-May-04 08:41 202 2 gusting 5 27.8
2015-May-04 08:36 202 2 gusting 4 27.8
2015-May-04 08:31 157 1 gusting 3 27.8
2015-May-04 08:26 225 3 gusting 5 27.8
2015-May-04 08:21 202 2 gusting 3 28.3
2015-May-04 08:16 202 4 gusting 5 28.3
2015-May-04 08:11 247 0 gusting 1 28.3
2015-May-04 08:06 112 1 gusting 2 28.3
2015-May-04 08:01 135 1 gusting 2 28.3
2015-May-04 07:56 180 2 gusting 4 28.9
2015-May-04 07:51 180 0 gusting 1 28.3
2015-May-04 07:46 202 28.3
2015-May-04 07:41 180 0 gusting 1 27.8
2015-May-04 07:36 135 0 gusting 3 27.8
2015-May-04 07:31 180 0 gusting 1 27.2
2015-May-04 07:26 202 1 gusting 3 27.2
2015-May-04 07:21 180 1 gusting 3 27.2
2015-May-04 07:16 180 1 gusting 2 27.2
2015-May-04 07:11 135 0 gusting 1 26.7
2015-May-04 07:06 180 1 gusting 3 26.7
2015-May-04 07:01 157 26.1
2015-May-04 06:56 180 1 gusting 2 25.6
2015-May-04 06:51 180 1 gusting 3 25.6
2015-May-04 06:46 180 1 gusting 2 25.6
2015-May-04 06:41 180 0 gusting 1 25.0
2015-May-04 06:36 157 1 gusting 3 25.0
2015-May-04 06:31 180 2 gusting 3 24.4
2015-May-04 06:26 180 1 gusting 3 24.4
2015-May-04 06:21 157 3 gusting 4 24.4
2015-May-04 06:16 180 1 gusting 3 24.4
2015-May-04 06:11 180 1 gusting 2 24.4
2015-May-04 06:06 135 2 gusting 3 24.4
2015-May-04 06:01 157 1 gusting 2 23.9
2015-May-04 05:56 112 1 gusting 2 23.9
2015-May-04 05:51 202 1 gusting 1 23.3
2015-May-04 05:46 157 1 gusting 2 23.9
2015-May-04 05:41 180 0 gusting 2 23.9
2015-May-04 05:36 157 0 gusting 1 23.3
2015-May-04 05:31 157 1 gusting 1 23.3
2015-May-04 05:26 090 22.8
2015-May-04 05:21 112 0 gusting 0 22.2
2015-May-04 05:16 112 21.7
2015-May-04 05:11 112 0 gusting 1 21.1
2015-May-04 05:06 112 0 gusting 1 20.6
2015-May-04 05:01 067 19.4
2015-May-04 04:56 067 0 gusting 1 18.3
2015-May-04 04:51 090 0 gusting 1 17.8
2015-May-04 04:46 090 2 gusting 3 17.2
2015-May-04 04:41 112 0 gusting 1 16.7
2015-May-04 04:36 112 3 gusting 3 16.1
2015-May-04 04:31 112 1 gusting 2 15.6
2015-May-04 04:26 090 1 gusting 2 15.0
2015-May-04 04:21 090 0 gusting 1 14.4
2015-May-04 04:16 067 2 gusting 3 13.9
2015-May-04 04:11 090 1 gusting 3 13.9
2015-May-04 04:06 090 0 gusting 1 13.3
2015-May-04 04:01 112 0 gusting 1 13.3
2015-May-04 03:56 067 1 gusting 3 12.8
2015-May-04 03:51 067 12.8
2015-May-04 03:46 112 1 gusting 2 12.8
2015-May-04 03:41 090 12.8
2015-May-04 03:36 090 1 gusting 1 12.8
2015-May-04 03:31 090 0 gusting 1 12.8
2015-May-04 03:26 067 1 gusting 1 12.8
2015-May-04 03:21 090 1 gusting 2 12.8
2015-May-04 03:16 067 0 gusting 1 12.2
2015-May-04 03:11 090 1 gusting 2 12.2
2015-May-04 03:06 090 1 gusting 2 12.2
2015-May-04 03:01 090 1 gusting 1 12.2
2015-May-04 02:56 090 1 gusting 1 12.2
2015-May-04 02:51 090 1 gusting 2 12.2
2015-May-04 02:46 067 0 gusting 1 12.2
2015-May-04 02:41 090 1 gusting 1 12.2
2015-May-04 02:36 090 0 gusting 0 12.2
2015-May-04 02:31 090 1 gusting 1 12.2
2015-May-04 02:26 090 0 gusting 1 12.2
2015-May-04 02:21 090 12.2
2015-May-04 02:16 090 0 gusting 1 12.8
2015-May-04 02:11 090 0 gusting 1 12.8
2015-May-04 02:06 067 0 gusting 1 12.8
2015-May-04 02:01 067 0 gusting 1 12.8
2015-May-04 01:56 090 1 gusting 1 12.8
2015-May-04 01:51 090 0 gusting 1 12.8
2015-May-04 01:46 090 1 gusting 2 12.8
2015-May-04 01:41 090 0 gusting 1 12.8
2015-May-04 01:36 067 1 gusting 2 12.8
2015-May-04 01:31 090 0 gusting 1 12.8
2015-May-04 01:26 090 1 gusting 1 12.8
2015-May-04 01:21 090 0 gusting 2 12.8
2015-May-04 01:16 090 0 gusting 1 12.8
2015-May-04 01:11 090 1 gusting 2 12.8
2015-May-04 01:06 090 0 gusting 1 12.8
2015-May-04 01:01 090 0 gusting 1 12.8
2015-May-04 00:56 067 0 gusting 0 12.8
2015-May-04 00:51 090 1 gusting 1 12.8
2015-May-04 00:46 067 0 gusting 1 12.8
2015-May-04 00:41 090 1 gusting 2 12.8
2015-May-04 00:36 090 1 gusting 2 12.8
2015-May-04 00:31 090 0 gusting 1 12.8
2015-May-04 00:26 090 1 gusting 1 12.8
2015-May-04 00:21 090 0 gusting 1 12.8
2015-May-04 00:16 090 1 gusting 1 12.8
2015-May-04 00:11 090 0 gusting 0 12.8
2015-May-04 00:06 090 0 gusting 1 12.8
2015-May-04 00:01 090 1 gusting 1 12.8
2015-May-03 23:56 090 1 gusting 1 12.8
2015-May-03 23:51 090 0 gusting 1 12.8
2015-May-03 23:46 090 0 gusting 1 12.8
2015-May-03 23:41 090 0 gusting 1 12.8
2015-May-03 23:36 090 0 gusting 1 12.8
2015-May-03 23:31 090 0 gusting 1 12.8
2015-May-03 23:26 090 12.8
2015-May-03 23:21 090 0 gusting 0 12.8
2015-May-03 23:16 067 12.8
2015-May-03 23:11 090 0 gusting 0 12.8
2015-May-03 23:06 090 0 gusting 0 12.8
2015-May-03 23:01 090 12.8
2015-May-03 22:56 090 0 gusting 0 12.8
2015-May-03 22:51 067 12.8
2015-May-03 22:46 067 12.8
2015-May-03 22:41 090 0 gusting 0 12.8
2015-May-03 22:36 090 12.8
2015-May-03 22:31 067 12.8
2015-May-03 22:26 067 13.3
2015-May-03 22:21 112 0 gusting 1 13.3
2015-May-03 22:16 090 0 gusting 1 13.3
2015-May-03 22:11 067 13.3
2015-May-03 22:06 067 13.3
2015-May-03 22:01 090 0 gusting 1 13.3
2015-May-03 21:56 090 0 gusting 1 13.3
2015-May-03 21:51 090 1 gusting 1 13.3
2015-May-03 21:46 090 1 gusting 1 13.3
2015-May-03 21:41 090 0 gusting 1 13.3
2015-May-03 21:36 090 1 gusting 1 13.3
2015-May-03 21:31 090 0 gusting 1 13.3
2015-May-03 21:26 090 0 gusting 0 13.3
2015-May-03 21:21 112 13.3
2015-May-03 21:16 090 0 gusting 1 13.3
2015-May-03 21:11 090 1 gusting 1 13.3
2015-May-03 21:06 090 0 gusting 1 13.3
2015-May-03 21:01 090 1 gusting 1 13.3
2015-May-03 20:56 090 1 gusting 1 13.3
2015-May-03 20:51 090 0 gusting 1 13.3
2015-May-03 20:46 090 1 gusting 2 13.3
2015-May-03 20:41 090 1 gusting 1 13.3
2015-May-03 20:36 090 1 gusting 1 13.9
2015-May-03 20:31 090 13.9
2015-May-03 20:26 090 13.9
2015-May-03 20:21 067 14.4
2015-May-03 20:16 067 14.4
2015-May-03 20:11 045 15.0
2015-May-03 20:06 045 0 gusting 1 15.0
2015-May-03 20:01 045 1 gusting 2 15.0
2015-May-03 19:56 067 1 gusting 1 14.4
2015-May-03 19:51 022 0 gusting 1 14.4
2015-May-03 19:46 045 0 gusting 1 14.4
2015-May-03 19:41 045 0 gusting 1 13.9
2015-May-03 19:36 045 0 gusting 0 13.9
2015-May-03 19:31 045 0 gusting 0 13.9
2015-May-03 19:26 045 0 gusting 0 14.4
2015-May-03 19:21 045 0 gusting 0 14.4
2015-May-03 19:16 090 14.4
2015-May-03 19:11 067 0 gusting 1 14.4
2015-May-03 19:06 090 0 gusting 1 14.4
2015-May-03 19:01 090 0 gusting 1 15.0
2015-May-03 18:56 045 15.0
2015-May-03 18:51 045 15.0
2015-May-03 18:46 045 15.0
2015-May-03 18:41 045 15.0
2015-May-03 18:36 045 0 gusting 1 15.0
2015-May-03 18:31 045 0 gusting 1 15.0
2015-May-03 18:26 045 15.0
2015-May-03 18:21 045 15.0
2015-May-03 18:16 045 15.0
2015-May-03 18:11 045 0 gusting 0 15.0
2015-May-03 18:06 067 15.0
2015-May-03 18:01 090 15.6
2015-May-03 17:56 112 15.6
2015-May-03 17:51 090 15.6
2015-May-03 17:46 090 0 gusting 1 15.6
2015-May-03 17:41 112 16.1
2015-May-03 17:36 090 0 gusting 1 16.1
2015-May-03 17:31 090 0 gusting 1 16.7
2015-May-03 17:26 090 16.7
2015-May-03 17:21 090 0 gusting 1 17.2
2015-May-03 17:16 090 0 gusting 1 17.2
2015-May-03 17:11 112 17.8
2015-May-03 17:06 112 1 gusting 1 17.8
2015-May-03 17:01 112 0 gusting 1 17.8
2015-May-03 16:56 090 2 gusting 2 18.3
2015-May-03 16:51 090 1 gusting 1 18.3
2015-May-03 16:46 090 2 gusting 4 18.9
2015-May-03 16:41 112 2 gusting 3 19.4
2015-May-03 16:36 090 0 gusting 1 19.4
2015-May-03 16:31 045 2 gusting 3 20.0
2015-May-03 16:26 090 2 gusting 3 20.0
2015-May-03 16:21 090 1 gusting 5 20.6
2015-May-03 16:16 112 3 gusting 4 21.1
2015-May-03 16:11 090 1 gusting 2 21.1
2015-May-03 16:06 112 1 gusting 3 21.7
2015-May-03 16:01 135 2 gusting 3 22.2
2015-May-03 15:56 157 3 gusting 5 22.2
2015-May-03 15:51 180 0 gusting 2 22.8
2015-May-03 15:46 090 2 gusting 3 22.2
2015-May-03 15:41 090 2 gusting 3 22.2
2015-May-03 15:36 112 5 gusting 6 22.8
2015-May-03 15:31 067 3 gusting 5 22.2
2015-May-03 15:26 090 4 gusting 5 22.2
2015-May-03 15:21 112 5 gusting 6 21.7
2015-May-03 15:16 090 3 gusting 4 21.1
2015-May-03 15:11 090 4 gusting 6 20.6
2015-May-03 15:06 112 1 gusting 3 20.6
2015-May-03 15:01 090 3 gusting 6 20.6
2015-May-03 14:56 135 3 gusting 5 21.1
2015-May-03 14:51 090 4 gusting 5 21.7
2015-May-03 14:46 090 2 gusting 3 23.3
2015-May-03 14:41 157 1 gusting 5 23.9
2015-May-03 14:36 135 3 gusting 4 25.0
2015-May-03 14:31 135 4 gusting 6 25.6
2015-May-03 14:26 157 2 gusting 4 25.6
2015-May-03 14:21 270 0 gusting 1 25.6
2015-May-03 14:16 180 2 gusting 3 25.0
2015-May-03 14:11 067 2 gusting 4 25.0
2015-May-03 14:06 135 1 gusting 4 24.4
2015-May-03 14:01 180 3 gusting 5 23.9
2015-May-03 13:56 112 3 gusting 6 24.4
2015-May-03 13:51 157 2 gusting 6 24.4
2015-May-03 13:46 202 5 gusting 6 25.0
2015-May-03 13:41 090 2 gusting 3 25.0
2015-May-03 13:36 135 4 gusting 6 25.6
2015-May-03 13:31 180 3 gusting 6 26.7
2015-May-03 13:26 135 0 gusting 3 26.1
2015-May-03 13:21 225 2 gusting 4 26.1
2015-May-03 13:16 292 0 gusting 1 26.1
2015-May-03 13:11 180 2 gusting 4 26.1
2015-May-03 13:06 135 2 gusting 6 26.1
2015-May-03 13:01 157 5 gusting 6 26.7
2015-May-03 12:56 202 6 gusting 6 26.7
2015-May-03 12:51 202 3 gusting 6 26.1
2015-May-03 12:46 202 5 gusting 6 26.1
2015-May-03 12:41 180 4 gusting 6 26.7
2015-May-03 12:36 202 6 gusting 8 26.7
2015-May-03 12:31 247 2 gusting 4 27.2
2015-May-03 12:26 157 1 gusting 3 27.2
2015-May-03 12:21 112 2 gusting 4 26.7
2015-May-03 12:16 112 3 gusting 6 26.1
2015-May-03 12:11 157 5 gusting 7 26.1
2015-May-03 12:06 135 5 gusting 6 26.1
2015-May-03 12:01 180 2 gusting 5 25.6
2015-May-03 11:56 135 4 gusting 6 25.6
2015-May-03 11:51 090 2 gusting 4 25.0
2015-May-03 11:46 112 6 gusting 6 24.4
2015-May-03 11:41 112 5 gusting 7 25.0
2015-May-03 11:36 112 5 gusting 6 25.6
2015-May-03 11:31 112 7 gusting 11 26.1
2015-May-03 11:26 180 3 gusting 5 26.1
2015-May-03 11:21 090 6 gusting 7 25.6
2015-May-03 11:16 112 5 gusting 8 25.6
2015-May-03 11:11 112 5 gusting 7 26.1
2015-May-03 11:06 112 2 gusting 4 26.7
2015-May-03 11:01 135 5 gusting 7 26.7
2015-May-03 10:56 135 26.7
2015-May-03 10:51 112 3 gusting 5 26.7
2015-May-03 10:46 26.1
2015-May-03 10:41 090 5 gusting 7 26.7
2015-May-03 10:36 202 5 gusting 9 27.2
2015-May-03 10:31 090 3 gusting 6 27.2
2015-May-03 10:26 225 3 gusting 5 26.1
2015-May-03 10:21 180 5 gusting 6 26.1
2015-May-03 10:16 225 3 gusting 5 25.0
2015-May-03 10:11 112 1 gusting 3 24.4
2015-May-03 10:06 202 5 gusting 7 25.0
2015-May-03 10:01 180 6 gusting 9 25.6
2015-May-03 09:56 202 5 gusting 6 25.6
2015-May-03 09:51 157 4 gusting 5 25.6
2015-May-03 09:46 180 2 gusting 4 26.7
2015-May-03 09:41 202 3 gusting 4 27.2
2015-May-03 09:36 225 0 gusting 1 26.7
2015-May-03 09:31 202 3 gusting 6 26.7
2015-May-03 09:26 202 5 gusting 9 26.7
2015-May-03 09:21 180 4 gusting 4 26.7
2015-May-03 09:16 247 3 gusting 3 26.7
2015-May-03 09:11 225 6 gusting 8 27.2
2015-May-03 09:06 225 0 gusting 1 26.7
2015-May-03 09:01 180 1 gusting 5 26.1
2015-May-03 08:56 135 0 gusting 2 26.7
2015-May-03 08:51 225 3 gusting 5 26.1
2015-May-03 08:46 225 4 gusting 7 27.2
2015-May-03 08:41 090 27.2
2015-May-03 08:36 27.2
2015-May-03 08:31 26.7
2015-May-03 08:26 292 2 gusting 3 26.7
2015-May-03 08:21 292 0 gusting 2 26.7
2015-May-03 08:16 247 2 gusting 3 26.7
2015-May-03 08:11 022 4 gusting 6 27.2
2015-May-03 08:06 067 3 gusting 5 27.2
2015-May-03 08:01 090 27.2
2015-May-03 07:56 045 27.2
2015-May-03 07:51 090 1 gusting 5 26.7
2015-May-03 07:46 157 1 gusting 3 27.2
2015-May-03 07:41 315 2 gusting 4 26.7
2015-May-03 07:36 315 1 gusting 2 26.1
2015-May-03 07:31 26.1
2015-May-03 07:26 022 1 gusting 2 26.1
2015-May-03 07:21 067 2 gusting 3 25.6
2015-May-03 07:16 045 3 gusting 5 25.6
2015-May-03 07:11 022 3 gusting 5 25.6
2015-May-03 07:06 292 2 gusting 4 25.6
2015-May-03 07:01 292 2 gusting 4 25.6
2015-May-03 06:56 292 2 gusting 4 25.0
2015-May-03 06:51 337 1 gusting 3 25.0
2015-May-03 06:46 337 2 gusting 3 25.0
2015-May-03 06:41 25.0
2015-May-03 06:36 045 1 gusting 3 24.4
2015-May-03 06:31 292 1 gusting 3 24.4
2015-May-03 06:26 315 0 gusting 1 24.4
2015-May-03 06:21 315 1 gusting 2 23.3
2015-May-03 06:16 337 3 gusting 4 22.8
2015-May-03 06:11 315 2 gusting 3 23.3
2015-May-03 06:06 315 2 gusting 4 22.8
2015-May-03 06:01 22.8
2015-May-03 05:56 292 2 gusting 3 22.2
2015-May-03 05:51 315 3 gusting 5 22.2
2015-May-03 05:46 270 23.3
2015-May-03 05:41 292 0 gusting 1 22.8
2015-May-03 05:36 292 0 gusting 2 22.2
2015-May-03 05:31 315 1 gusting 2 22.2
2015-May-03 05:26 292 1 gusting 1 22.2
2015-May-03 05:21 315 1 gusting 2 22.2
2015-May-03 05:16 315 0 gusting 1 21.7
2015-May-03 05:11 21.1
2015-May-03 05:06 022 1 gusting 3 20.6
2015-May-03 05:01 045 0 gusting 1 20.0
2015-May-03 04:56 19.4
2015-May-03 04:51 045 1 gusting 2 18.9
2015-May-03 04:46 022 2 gusting 3 17.8
2015-May-03 04:41 17.2
2015-May-03 04:36 16.7
2015-May-03 04:31 022 2 gusting 3 16.1
2015-May-03 04:26 045 1 gusting 1 15.6
2015-May-03 04:21 045 0 gusting 0 15.0
2015-May-03 04:16 067 0 gusting 1 14.4
2015-May-03 04:11 045 13.3
2015-May-03 04:06 045 0 gusting 1 12.8
2015-May-03 04:01 090 0 gusting 0 12.8
2015-May-03 03:56 090 12.2
2015-May-03 03:51 045 11.7
2015-May-03 03:46 045 11.7
2015-May-03 03:41 045 11.7
2015-May-03 03:36 090 11.7
2015-May-03 03:31 090 1 gusting 1 11.7
2015-May-03 03:26 090 0 gusting 1 11.7
2015-May-03 03:21 067 11.7
2015-May-03 03:16 045 11.7
2015-May-03 03:11 045 11.7
2015-May-03 03:06 045 11.7
2015-May-03 03:01 090 11.7
2015-May-03 02:56 045 0 gusting 1 11.7
2015-May-03 02:51 045 11.7
2015-May-03 02:46 045 11.7
2015-May-03 02:41 045 0 gusting 1 11.7
2015-May-03 02:36 045 11.1
2015-May-03 02:31 045 11.7
2015-May-03 02:26 045 11.1
2015-May-03 02:21 067 11.1
2015-May-03 02:16 045 11.7
2015-May-03 02:11 045 11.7
2015-May-03 02:06 045 11.7
2015-May-03 02:01 045 12.2
2015-May-03 01:56 045 12.2
2015-May-03 01:51 045 0 gusting 0 11.7
2015-May-03 01:46 045 11.7
2015-May-03 01:41 045 1 gusting 1 11.1
2015-May-03 01:36 067 0 gusting 0 11.1
2015-May-03 01:31 067 11.1
2015-May-03 01:26 090 0 gusting 1 11.7
2015-May-03 01:21 045 1 gusting 2 11.7
2015-May-03 01:16 090 2 gusting 2 11.7
2015-May-03 01:11 090 2 gusting 3 11.7
2015-May-03 01:06 067 0 gusting 1 11.7
2015-May-03 01:01 090 2 gusting 3 11.7
2015-May-03 00:56 090 1 gusting 2 11.7
2015-May-03 00:51 067 0 gusting 1 11.7
2015-May-03 00:46 067 1 gusting 1 11.7
2015-May-03 00:41 067 0 gusting 1 11.7
2015-May-03 00:36 067 0 gusting 0 11.7
2015-May-03 00:31 090 0 gusting 0 11.7
2015-May-03 00:26 090 0 gusting 1 11.7
2015-May-03 00:21 112 0 gusting 0 11.7
2015-May-03 00:16 090 0 gusting 1 11.7
2015-May-03 00:11 067 0 gusting 1 11.7
2015-May-03 00:06 067 0 gusting 1 11.7
2015-May-03 00:01 090 0 gusting 1 11.7
2015-May-02 23:56 090 1 gusting 1 11.7
2015-May-02 23:51 090 0 gusting 1 11.7
2015-May-02 23:46 067 0 gusting 1 11.7
2015-May-02 23:41 090 0 gusting 1 11.7
2015-May-02 23:36 090 0 gusting 0 11.7
2015-May-02 23:31 090 0 gusting 1 11.7
2015-May-02 23:26 067 1 gusting 1 11.7
2015-May-02 23:21 067 1 gusting 1 11.7
2015-May-02 23:16 112 1 gusting 1 12.2
2015-May-02 23:11 090 0 gusting 1 12.2
2015-May-02 23:06 090 1 gusting 1 12.2
2015-May-02 23:01 090 0 gusting 1 12.2
2015-May-02 22:56 067 0 gusting 0 12.2
2015-May-02 22:51 090 0 gusting 1 12.2
2015-May-02 22:46 090 0 gusting 2 12.2
2015-May-02 22:41 090 1 gusting 2 12.2
2015-May-02 22:36 090 1 gusting 2 12.2
2015-May-02 22:31 090 0 gusting 1 12.2
2015-May-02 22:26 090 0 gusting 0 12.2
2015-May-02 22:21 090 12.2
2015-May-02 22:16 067 12.8
2015-May-02 22:11 090 12.8
2015-May-02 22:06 067 0 gusting 1 12.8
2015-May-02 22:01 067 0 gusting 1 12.8
2015-May-02 21:56 067 0 gusting 1 12.8
2015-May-02 21:51 067 0 gusting 0 12.8
2015-May-02 21:46 067 0 gusting 1 12.8
2015-May-02 21:41 067 12.8
2015-May-02 21:36 067 12.8
2015-May-02 21:31 067 0 gusting 1 12.8
2015-May-02 21:26 067 1 gusting 1 12.8
2015-May-02 21:21 067 0 gusting 0 12.8
2015-May-02 21:16 067 12.8
2015-May-02 21:11 067 12.8
2015-May-02 21:06 067 0 gusting 1 12.8
2015-May-02 21:01 112 12.8
2015-May-02 20:56 112 12.8
2015-May-02 20:51 067 0 gusting 1 12.8
2015-May-02 20:46 067 12.8
2015-May-02 20:41 090 13.3
2015-May-02 20:36 090 0 gusting 1 13.3
2015-May-02 20:31 090 0 gusting 1 13.3
2015-May-02 20:26 067 13.3
2015-May-02 20:21 067 13.3
2015-May-02 20:16 090 2 gusting 3 13.3
2015-May-02 20:11 090 13.9
2015-May-02 20:06 067 13.9
2015-May-02 20:01 090 0 gusting 1 13.9
2015-May-02 19:56 090 0 gusting 1 13.9
2015-May-02 19:51 090 0 gusting 1 13.9
2015-May-02 19:46 112 0 gusting 1 13.9
2015-May-02 19:41 090 0 gusting 1 13.9
2015-May-02 19:36 090 1 gusting 2 13.9
2015-May-02 19:31 090 13.9
2015-May-02 19:26 090 1 gusting 1 13.9
2015-May-02 19:21 090 0 gusting 1 13.9
2015-May-02 19:16 090 14.4
2015-May-02 19:11 090 14.4
2015-May-02 19:06 067 0 gusting 0 14.4
2015-May-02 19:01 090 14.4
2015-May-02 18:56 112 1 gusting 1 15.0
2015-May-02 18:51 090 1 gusting 1 15.0
2015-May-02 18:46 090 0 gusting 1 15.0
2015-May-02 18:41 135 15.6
2015-May-02 18:36 112 15.6
2015-May-02 18:31 090 15.6
2015-May-02 18:26 090 0 gusting 1 15.6
2015-May-02 18:21 180 16.1
2015-May-02 18:16 157 0 gusting 0 16.1
2015-May-02 18:11 135 0 gusting 2 16.1
2015-May-02 18:06 067 1 gusting 2 16.1
2015-May-02 18:01 112 16.1
2015-May-02 17:56 135 1 gusting 1 16.1
2015-May-02 17:51 090 0 gusting 2 16.7
2015-May-02 17:46 225 0 gusting 1 16.7
2015-May-02 17:41 225 16.7
2015-May-02 17:36 270 17.2
2015-May-02 17:31 270 2 gusting 5 17.2
2015-May-02 17:26 225 0 gusting 2 17.2
2015-May-02 17:21 247 17.8
2015-May-02 17:16 202 0 gusting 2 17.8
2015-May-02 17:11 270 2 gusting 3 17.8
2015-May-02 17:06 247 2 gusting 3 18.3
2015-May-02 17:01 270 2 gusting 3 18.3
2015-May-02 16:56 225 2 gusting 3 18.3
2015-May-02 16:51 247 2 gusting 3 18.3
2015-May-02 16:46 270 0 gusting 1 18.3
2015-May-02 16:41 225 2 gusting 4 18.3
2015-May-02 16:36 225 0 gusting 2 18.3
2015-May-02 16:31 247 1 gusting 1 18.9
2015-May-02 16:26 247 1 gusting 2 18.9
2015-May-02 16:21 180 0 gusting 2 18.9
2015-May-02 16:16 225 18.9
2015-May-02 16:11 202 1 gusting 2 18.9
2015-May-02 16:06 270 0 gusting 3 18.9
2015-May-02 16:01 270 2 gusting 5 19.4
2015-May-02 15:56 270 2 gusting 6 19.4
2015-May-02 15:51 292 3 gusting 5 19.4
2015-May-02 15:46 270 3 gusting 4 20.0
2015-May-02 15:41 315 3 gusting 5 20.0
2015-May-02 15:36 270 1 gusting 2 20.0
2015-May-02 15:31 247 4 gusting 8 20.0
2015-May-02 15:26 292 2 gusting 4 20.6
2015-May-02 15:21 270 2 gusting 4 20.6
2015-May-02 15:16 292 3 gusting 6 20.6
2015-May-02 15:11 270 1 gusting 2 20.6
2015-May-02 15:06 270 5 gusting 6 20.6
2015-May-02 15:01 292 2 gusting 3 20.6
2015-May-02 14:56 247 4 gusting 6 20.6
2015-May-02 14:51 292 4 gusting 6 20.6
2015-May-02 14:46 292 4 gusting 7 21.1
2015-May-02 14:41 247 4 gusting 6 21.7
2015-May-02 14:36 247 4 gusting 5 21.7
2015-May-02 14:31 247 4 gusting 6 21.7
2015-May-02 14:26 270 2 gusting 4 21.1
2015-May-02 14:21 270 3 gusting 4 21.1
2015-May-02 14:16 270 4 gusting 6 21.1
2015-May-02 14:11 247 3 gusting 6 21.1
2015-May-02 14:06 225 3 gusting 6 21.1
2015-May-02 14:01 247 5 gusting 7 21.1
2015-May-02 13:56 270 5 gusting 6 21.1
2015-May-02 13:51 270 3 gusting 6 21.7
2015-May-02 13:46 247 4 gusting 6 21.7
2015-May-02 13:41 225 0 gusting 2 22.2
2015-May-02 13:36 270 4 gusting 5 22.8
2015-May-02 13:31 292 5 gusting 6 23.3
2015-May-02 13:26 247 5 gusting 7 23.3
2015-May-02 13:21 202 4 gusting 6 22.2
2015-May-02 13:16 202 4 gusting 6 21.7
2015-May-02 13:11 225 5 gusting 6 22.2
2015-May-02 13:06 247 4 gusting 6 22.2
2015-May-02 13:01 247 6 gusting 9 22.8
2015-May-02 12:56 315 4 gusting 6 23.3
2015-May-02 12:51 292 4 gusting 7 23.3
2015-May-02 12:46 270 6 gusting 9 23.9
2015-May-02 12:41 292 4 gusting 6 23.3
2015-May-02 12:36 247 2 gusting 3 22.8
2015-May-02 12:31 225 3 gusting 5 23.3
2015-May-02 12:26 225 4 gusting 6 23.3
2015-May-02 12:21 247 1 gusting 3 23.9
2015-May-02 12:16 270 2 gusting 6 23.9
2015-May-02 12:11 270 6 gusting 9 25.0
2015-May-02 12:06 225 6 gusting 7 25.6
2015-May-02 12:01 270 5 gusting 8 25.6
2015-May-02 11:56 202 4 gusting 6 25.0
2015-May-02 11:51 225 3 gusting 5 24.4
2015-May-02 11:46 247 5 gusting 6 25.0
2015-May-02 11:41 225 3 gusting 4 25.0
2015-May-02 11:36 270 4 gusting 7 24.4
2015-May-02 11:31 270 2 gusting 4 23.3
2015-May-02 11:26 270 1 gusting 3 22.2
2015-May-02 11:21 247 6 gusting 8 22.2
2015-May-02 11:16 270 5 gusting 7 22.2
2015-May-02 11:11 270 3 gusting 5 22.2
2015-May-02 11:06 270 5 gusting 6 23.3
2015-May-02 11:01 292 3 gusting 5 24.4
2015-May-02 10:56 270 3 gusting 6 25.6
2015-May-02 10:51 202 5 gusting 8 25.6
2015-May-02 10:46 292 5 gusting 6 25.0
2015-May-02 10:41 292 2 gusting 5 23.3
2015-May-02 10:36 292 3 gusting 4 22.2
2015-May-02 10:31 247 6 gusting 9 22.2
2015-May-02 10:26 225 3 gusting 7 22.2
2015-May-02 10:21 225 6 gusting 9 22.2
2015-May-02 10:16 202 4 gusting 8 22.2
2015-May-02 10:11 180 6 gusting 8 22.8
2015-May-02 10:06 225 6 gusting 7 23.3
2015-May-02 10:01 225 2 gusting 4 23.9